createdAt,value
2019-03-25T00:00:57.526Z,17.80
2019-03-25T00:03:46.725Z,17.80
2019-03-25T00:06:35.071Z,17.70
2019-03-25T00:09:23.423Z,17.70
2019-03-25T00:12:11.699Z,17.70
2019-03-25T00:15:00.362Z,17.70
2019-03-25T00:17:49.029Z,17.60
2019-03-25T00:20:37.152Z,17.60
2019-03-25T00:23:25.881Z,17.60
2019-03-25T00:26:14.973Z,17.50
2019-03-25T00:29:03.445Z,17.50
2019-03-25T00:31:51.623Z,17.50
2019-03-25T00:34:39.758Z,17.40
2019-03-25T00:37:28.207Z,17.40
2019-03-25T00:40:16.677Z,17.40
2019-03-25T00:43:05.357Z,17.30
2019-03-25T00:45:53.900Z,17.30
2019-03-25T00:48:42.452Z,17.30
2019-03-25T00:51:30.915Z,17.20
2019-03-25T00:54:19.239Z,17.20
2019-03-25T00:57:07.563Z,17.20
2019-03-25T00:59:55.881Z,17.10
2019-03-25T01:02:44.083Z,17.10
2019-03-25T01:05:32.394Z,17.10
2019-03-25T01:08:20.553Z,17.10
2019-03-25T01:11:09.185Z,17.10
2019-03-25T01:13:57.451Z,17.00
2019-03-25T01:16:46.347Z,17.00
2019-03-25T01:19:34.725Z,17.00
2019-03-25T01:22:23.608Z,17.00
2019-03-25T01:25:12.185Z,17.00
2019-03-25T01:28:00.684Z,17.00
2019-03-25T01:30:49.266Z,16.90
2019-03-25T01:33:37.571Z,16.90
2019-03-25T01:36:25.973Z,16.90
2019-03-25T01:39:13.904Z,16.90
2019-03-25T01:42:02.231Z,16.90
2019-03-25T01:44:50.747Z,16.90
2019-03-25T01:47:38.741Z,16.90
2019-03-25T01:50:26.893Z,16.90
2019-03-25T01:53:15.341Z,16.90
2019-03-25T01:56:03.924Z,16.90
2019-03-25T01:58:52.104Z,16.90
2019-03-25T02:01:41.249Z,16.90
2019-03-25T02:04:29.736Z,16.90
2019-03-25T02:07:18.413Z,16.90
2019-03-25T02:10:09.105Z,16.90
2019-03-25T02:12:57.545Z,16.90
2019-03-25T02:15:45.992Z,16.90
2019-03-25T02:18:37.398Z,17.00
2019-03-25T02:21:26.012Z,17.00
2019-03-25T02:24:14.427Z,16.90
2019-03-25T02:27:02.902Z,17.00
2019-03-25T02:29:51.044Z,17.00
2019-03-25T02:32:39.640Z,16.90
2019-03-25T02:35:28.101Z,16.90
2019-03-25T02:38:16.264Z,16.90
2019-03-25T02:41:04.765Z,16.90
2019-03-25T02:43:52.909Z,16.90
2019-03-25T02:46:41.407Z,16.90
2019-03-25T02:49:29.773Z,16.90
2019-03-25T02:52:18.678Z,16.80
2019-03-25T02:55:07.658Z,16.80
2019-03-25T02:57:56.326Z,16.80
2019-03-25T03:00:44.916Z,16.80
2019-03-25T03:03:33.197Z,16.70
2019-03-25T03:06:21.347Z,16.70
2019-03-25T03:09:10.668Z,16.70
2019-03-25T03:11:59.454Z,16.70
2019-03-25T03:14:47.921Z,16.60
2019-03-25T03:17:36.857Z,16.60
2019-03-25T03:20:25.274Z,16.60
2019-03-25T03:23:13.609Z,16.60
2019-03-25T03:26:02.148Z,16.50
2019-03-25T03:28:50.733Z,16.50
2019-03-25T03:31:39.018Z,16.50
2019-03-25T03:34:27.628Z,16.40
2019-03-25T03:37:15.896Z,16.40
2019-03-25T03:40:06.118Z,16.40
2019-03-25T03:42:54.601Z,16.40
2019-03-25T03:45:43.039Z,16.40
2019-03-25T03:48:31.165Z,16.30
2019-03-25T03:51:20.020Z,16.40
2019-03-25T03:54:08.670Z,16.30
2019-03-25T03:56:57.978Z,16.30
2019-03-25T03:59:46.343Z,16.30
2019-03-25T04:02:34.477Z,16.30
2019-03-25T04:05:23.128Z,16.30
2019-03-25T04:08:11.376Z,16.30
2019-03-25T04:10:59.881Z,16.30
2019-03-25T04:13:48.343Z,16.30
2019-03-25T04:16:36.465Z,16.30
2019-03-25T04:19:24.773Z,16.30
2019-03-25T04:22:14.170Z,16.30
2019-03-25T04:25:02.286Z,16.40
2019-03-25T04:27:50.866Z,16.50
2019-03-25T04:30:39.373Z,16.60
2019-03-25T04:33:27.781Z,16.70
2019-03-25T04:36:16.184Z,16.80
2019-03-25T04:39:07.477Z,16.90
2019-03-25T04:41:55.850Z,17.00
2019-03-25T04:44:44.737Z,17.10
2019-03-25T04:47:33.139Z,17.20
2019-03-25T04:50:21.774Z,17.30
2019-03-25T04:52:52.465Z,17.30
2019-03-25T04:55:23.138Z,17.40
2019-03-25T04:57:53.767Z,17.40
2019-03-25T05:00:33.436Z,17.50
2019-03-25T05:03:21.574Z,17.50
2019-03-25T05:06:10.240Z,17.60
2019-03-25T05:08:58.492Z,17.60
2019-03-25T05:11:46.892Z,17.60
2019-03-25T05:14:35.264Z,17.60
2019-03-25T05:17:23.700Z,17.60
2019-03-25T05:20:12.508Z,17.60
2019-03-25T05:23:00.975Z,17.60
2019-03-25T05:25:49.364Z,17.60
2019-03-25T05:28:37.571Z,17.60
2019-03-25T05:31:26.238Z,17.60
2019-03-25T05:34:14.687Z,17.60
2019-03-25T05:37:03.079Z,17.60
2019-03-25T05:39:51.592Z,17.60
2019-03-25T05:42:40.152Z,17.50
2019-03-25T05:45:28.531Z,17.50
2019-03-25T05:48:16.836Z,17.50
2019-03-25T05:51:05.437Z,17.50
2019-03-25T05:53:54.004Z,17.50
2019-03-25T05:56:42.339Z,17.50
2019-03-25T05:59:31.090Z,17.40
2019-03-25T06:02:19.619Z,17.40
2019-03-25T06:05:08.417Z,17.40
2019-03-25T06:07:56.504Z,17.40
2019-03-25T06:10:48.165Z,17.30
2019-03-25T06:13:36.623Z,17.30
2019-03-25T06:16:25.319Z,17.30
2019-03-25T06:19:13.323Z,17.40
2019-03-25T06:22:01.622Z,17.50
2019-03-25T06:24:50.214Z,17.50
2019-03-25T06:27:39.591Z,17.60
2019-03-25T06:30:28.273Z,17.60
2019-03-25T06:33:16.853Z,17.60
2019-03-25T06:36:05.349Z,17.60
2019-03-25T06:38:53.699Z,17.60
2019-03-25T06:41:42.235Z,17.70
2019-03-25T06:44:30.569Z,17.80
2019-03-25T06:47:18.959Z,17.90
2019-03-25T06:50:09.359Z,18.00
2019-03-25T06:52:57.911Z,18.10
2019-03-25T06:55:46.765Z,18.10
2019-03-25T06:58:35.035Z,18.10
2019-03-25T07:01:23.507Z,18.20
2019-03-25T07:04:12.051Z,18.30
2019-03-25T07:07:00.778Z,18.40
2019-03-25T07:09:49.521Z,18.40
2019-03-25T07:12:37.953Z,18.40
2019-03-25T07:15:28.483Z,18.40
2019-03-25T07:18:17.106Z,18.40
2019-03-25T07:21:05.261Z,18.40
2019-03-25T07:23:53.683Z,18.40
2019-03-25T07:26:42.239Z,18.40
2019-03-25T07:29:30.440Z,18.40
2019-03-25T07:32:18.880Z,18.40
2019-03-25T07:35:09.019Z,18.50
2019-03-25T07:37:57.548Z,18.60
2019-03-25T07:40:45.854Z,18.70
2019-03-25T07:43:33.977Z,18.90
2019-03-25T07:46:23.026Z,19.00
2019-03-25T07:49:11.648Z,19.10
2019-03-25T07:51:59.986Z,19.20
2019-03-25T07:54:48.465Z,19.10
2019-03-25T07:57:47.438Z,19.10
2019-03-25T08:00:27.069Z,19.20
2019-03-25T08:03:15.353Z,19.20
2019-03-25T08:06:03.935Z,19.20
2019-03-25T08:09:03.130Z,19.10
2019-03-25T08:11:42.085Z,19.00
2019-03-25T08:14:30.736Z,18.90
2019-03-25T08:17:19.087Z,18.90
2019-03-25T08:20:08.776Z,19.00
2019-03-25T08:22:57.230Z,19.10
2019-03-25T08:25:45.690Z,19.10
2019-03-25T08:28:33.965Z,19.00
2019-03-25T08:31:22.594Z,19.00
2019-03-25T08:34:11.267Z,19.30
2019-03-25T08:36:59.654Z,19.60
2019-03-25T08:39:47.951Z,19.60
2019-03-25T08:42:36.507Z,19.70
2019-03-25T08:45:25.434Z,19.80
2019-03-25T08:48:13.862Z,19.80
2019-03-25T08:51:02.525Z,19.90
2019-03-25T08:53:50.761Z,19.90
2019-03-25T08:56:39.212Z,19.90
2019-03-25T08:59:27.895Z,20.00
2019-03-25T09:02:16.291Z,20.00
2019-03-25T09:05:06.756Z,20.00
2019-03-25T09:07:55.189Z,19.90
2019-03-25T09:10:43.837Z,20.00
2019-03-25T09:13:32.361Z,20.00
2019-03-25T09:16:20.708Z,19.90
2019-03-25T09:18:54.093Z,20.10
2019-03-25T09:21:24.824Z,20.10
2019-03-25T09:23:56.099Z,20.10
2019-03-25T09:26:26.912Z,20.00
2019-03-25T09:28:58.305Z,20.00
2019-03-25T09:31:36.657Z,20.00
2019-03-25T09:34:01.380Z,20.10
2019-03-25T09:36:32.118Z,20.10
2019-03-25T09:39:04.419Z,20.00
2019-03-25T09:41:35.107Z,20.00
2019-03-25T09:44:06.314Z,20.00
2019-03-25T09:46:55.347Z,20.20
2019-03-25T09:49:43.684Z,20.30
2019-03-25T09:52:38.403Z,20.40
2019-03-25T09:55:22.243Z,20.60
2019-03-25T09:57:52.890Z,20.60
2019-03-25T10:00:31.805Z,20.60
2019-03-25T10:03:19.887Z,20.70
2019-03-25T10:06:14.517Z,20.80
2019-03-25T10:09:03.214Z,20.80
2019-03-25T10:11:56.972Z,20.80
2019-03-25T10:14:48.127Z,20.90
2019-03-25T10:17:41.158Z,20.90
2019-03-25T10:20:30.090Z,20.80
2019-03-25T10:23:18.465Z,20.80
2019-03-25T10:26:07.364Z,20.80
2019-03-25T10:28:55.961Z,20.90
2019-03-25T10:31:45.999Z,20.90
2019-03-25T10:35:04.783Z,20.80
2019-03-25T10:41:22.638Z,20.70
2019-03-25T10:44:14.088Z,20.60
2019-03-25T10:47:12.437Z,20.60
2019-03-25T10:50:02.132Z,20.80
2019-03-25T10:53:05.092Z,20.90
2019-03-25T10:57:34.628Z,20.90
2019-03-25T10:59:09.046Z,21.00
2019-03-25T11:02:03.629Z,21.10
2019-03-25T11:04:53.840Z,21.00
2019-03-25T11:08:37.436Z,21.00
2019-03-25T11:13:58.665Z,21.00
2019-03-25T11:16:49.748Z,21.00
2019-03-25T11:19:48.118Z,21.10
2019-03-25T11:22:53.612Z,21.00
2019-03-25T11:26:15.010Z,21.00
2019-03-25T11:32:57.675Z,21.00
2019-03-25T11:35:48.506Z,21.00
2019-03-25T11:38:36.721Z,21.00
2019-03-25T11:41:25.226Z,21.00
2019-03-25T11:44:13.384Z,21.00
2019-03-25T11:47:01.697Z,21.00
2019-03-25T11:49:50.452Z,21.00
2019-03-25T11:52:39.888Z,21.00
2019-03-25T11:55:28.476Z,21.00
2019-03-25T11:58:17.011Z,21.00
2019-03-25T12:00:59.702Z,20.90
2019-03-25T12:03:48.254Z,20.90
2019-03-25T12:06:37.280Z,20.90
2019-03-25T12:09:25.882Z,20.90
2019-03-25T12:12:14.119Z,20.80
2019-03-25T12:15:02.497Z,20.80
2019-03-25T12:17:50.848Z,20.80
2019-03-25T12:20:39.343Z,20.80
2019-03-25T12:23:27.996Z,20.80
2019-03-25T12:26:16.361Z,20.80
2019-03-25T12:29:05.239Z,20.80
2019-03-25T12:31:53.409Z,20.80
2019-03-25T12:34:41.753Z,20.80
2019-03-25T12:37:30.282Z,20.80
2019-03-25T12:40:18.756Z,20.80
2019-03-25T12:43:07.293Z,20.70
2019-03-25T12:45:55.421Z,20.70
2019-03-25T12:48:43.591Z,20.70
2019-03-25T12:51:32.145Z,20.70
2019-03-25T12:54:20.472Z,20.70
2019-03-25T12:57:08.653Z,20.60
2019-03-25T12:59:57.123Z,20.60
2019-03-25T13:02:45.739Z,20.60
2019-03-25T13:05:34.575Z,20.60
2019-03-25T13:08:32.794Z,20.60
2019-03-25T13:11:13.116Z,20.60
2019-03-25T13:14:02.571Z,20.60
2019-03-25T13:16:50.886Z,20.60
2019-03-25T13:19:39.153Z,20.60
2019-03-25T13:22:28.135Z,20.60
2019-03-25T13:25:16.519Z,20.70
2019-03-25T13:28:05.192Z,20.70
2019-03-25T13:30:53.738Z,20.70
2019-03-25T13:33:45.099Z,20.80
2019-03-25T13:36:33.871Z,20.90
2019-03-25T13:39:22.268Z,21.10
2019-03-25T13:42:10.417Z,21.20
2019-03-25T13:44:58.631Z,21.20
2019-03-25T13:47:46.993Z,21.20
2019-03-25T13:50:35.364Z,21.20
2019-03-25T13:53:24.244Z,21.20
2019-03-25T13:56:13.079Z,21.10
2019-03-25T13:59:01.569Z,21.10
2019-03-25T14:01:50.159Z,21.00
2019-03-25T14:04:38.840Z,21.00
2019-03-25T14:07:26.869Z,20.90
2019-03-25T14:10:15.596Z,20.90
2019-03-25T14:13:04.018Z,20.80
2019-03-25T14:15:52.912Z,20.90
2019-03-25T14:18:41.360Z,20.90
2019-03-25T14:21:30.055Z,20.80
2019-03-25T14:24:18.148Z,20.80
2019-03-25T14:27:06.428Z,20.80
2019-03-25T14:29:54.670Z,20.80
2019-03-25T14:32:42.771Z,20.80
2019-03-25T14:35:31.017Z,20.80
2019-03-25T14:38:19.331Z,20.80
2019-03-25T14:41:07.838Z,20.80
2019-03-25T14:43:56.451Z,20.80
2019-03-25T14:46:44.516Z,20.80
2019-03-25T14:49:33.082Z,20.90
2019-03-25T14:52:21.414Z,20.80
2019-03-25T14:55:10.199Z,20.80
2019-03-25T14:57:58.505Z,20.80
2019-03-25T15:00:47.038Z,20.80
2019-03-25T15:03:35.336Z,20.70
2019-03-25T15:06:23.541Z,20.70
2019-03-25T15:09:11.688Z,20.70
2019-03-25T15:11:59.931Z,20.70
2019-03-25T15:14:48.620Z,20.70
2019-03-25T15:17:38.214Z,20.70
2019-03-25T15:20:26.550Z,20.60
2019-03-25T15:23:14.965Z,20.60
2019-03-25T15:26:03.709Z,20.60
2019-03-25T15:28:51.802Z,20.60
2019-03-25T15:31:40.156Z,20.60
2019-03-25T15:34:29.106Z,20.60
2019-03-25T15:37:17.552Z,20.60
2019-03-25T15:40:08.795Z,20.60
2019-03-25T15:42:57.266Z,20.60
2019-03-25T15:45:45.441Z,20.60
2019-03-25T15:48:33.622Z,20.60
2019-03-25T15:51:22.291Z,20.60
2019-03-25T15:54:10.568Z,20.60
2019-03-25T15:56:58.886Z,20.50
2019-03-25T15:59:47.639Z,20.50
2019-03-25T16:02:35.960Z,20.50
2019-03-25T16:05:24.406Z,20.50
2019-03-25T16:08:13.266Z,20.50
2019-03-25T16:11:02.122Z,20.50
2019-03-25T16:13:50.954Z,20.40
2019-03-25T16:16:39.233Z,20.40
2019-03-25T16:19:27.851Z,20.50
2019-03-25T16:22:16.242Z,20.40
2019-03-25T16:25:06.580Z,20.40
2019-03-25T16:27:54.981Z,20.40
2019-03-25T16:30:43.406Z,20.40
2019-03-25T16:33:31.681Z,20.40
2019-03-25T16:36:20.323Z,20.40
2019-03-25T16:39:09.616Z,20.40
2019-03-25T16:41:58.320Z,20.40
2019-03-25T16:44:47.149Z,20.40
2019-03-25T16:47:35.974Z,20.40
2019-03-25T16:50:24.433Z,20.40
2019-03-25T16:53:13.155Z,20.30
2019-03-25T16:56:01.435Z,20.30
2019-03-25T16:58:49.793Z,20.30
2019-03-25T17:01:38.265Z,20.40
2019-03-25T17:04:26.940Z,20.40
2019-03-25T17:07:15.700Z,20.40
2019-03-25T17:10:05.664Z,20.30
2019-03-25T17:12:54.064Z,20.30
2019-03-25T17:15:42.613Z,20.30
2019-03-25T17:18:30.899Z,20.30
2019-03-25T17:21:19.583Z,20.30
2019-03-25T17:24:08.466Z,20.30
2019-03-25T17:26:57.037Z,20.30
2019-03-25T17:29:45.174Z,20.30
2019-03-25T17:32:33.616Z,20.30
2019-03-25T17:35:22.185Z,20.30
2019-03-25T17:38:10.916Z,20.30
2019-03-25T17:40:59.234Z,20.30
2019-03-25T17:43:47.614Z,20.20
2019-03-25T17:46:36.240Z,20.30
2019-03-25T17:49:24.317Z,20.30
2019-03-25T17:52:12.550Z,20.20
2019-03-25T17:55:00.804Z,20.20
2019-03-25T17:57:49.334Z,20.20
2019-03-25T18:00:49.969Z,20.30
2019-03-25T18:03:38.337Z,20.30
2019-03-25T18:06:27.053Z,20.30
2019-03-25T18:09:15.682Z,20.30
2019-03-25T18:12:04.398Z,20.30
2019-03-25T18:14:53.171Z,20.30
2019-03-25T18:17:41.756Z,20.30
2019-03-25T18:20:30.404Z,20.30
2019-03-25T18:23:18.838Z,20.30
2019-03-25T18:26:07.605Z,20.30
2019-03-25T18:28:56.212Z,20.30
2019-03-25T18:31:44.623Z,20.30
2019-03-25T18:34:33.839Z,20.30
2019-03-25T18:37:23.658Z,20.30
2019-03-25T18:40:12.006Z,20.30
2019-03-25T18:43:00.754Z,20.30
2019-03-25T18:45:49.349Z,20.30
2019-03-25T18:48:37.787Z,20.30
2019-03-25T18:51:26.248Z,20.30
2019-03-25T18:54:14.628Z,20.30
2019-03-25T18:57:02.903Z,20.30
2019-03-25T18:59:51.556Z,20.30
2019-03-25T19:02:39.910Z,20.30
2019-03-25T19:05:28.463Z,20.30
2019-03-25T19:08:19.058Z,20.20
2019-03-25T19:11:07.575Z,20.30
2019-03-25T19:13:56.592Z,20.20
2019-03-25T19:16:44.905Z,20.20
2019-03-25T19:19:33.296Z,20.20
2019-03-25T19:22:21.502Z,20.20
2019-03-25T19:25:10.153Z,20.20
2019-03-25T19:27:58.628Z,20.20
2019-03-25T19:30:47.235Z,20.20
2019-03-25T19:33:35.734Z,20.20
2019-03-25T19:36:24.760Z,20.20
2019-03-25T19:39:13.050Z,20.20
2019-03-25T19:42:01.612Z,20.20
2019-03-25T19:44:50.166Z,20.20
2019-03-25T19:47:40.460Z,20.20
2019-03-25T19:50:29.346Z,20.20
2019-03-25T19:53:19.422Z,20.20
2019-03-25T19:56:08.227Z,20.20
2019-03-25T19:58:56.621Z,20.20
2019-03-25T20:01:45.115Z,20.20
2019-03-25T20:04:33.767Z,20.10
2019-03-25T20:07:22.767Z,20.10
2019-03-25T20:10:29.126Z,20.10
2019-03-25T20:13:17.499Z,20.00
2019-03-25T20:16:06.215Z,20.00
2019-03-25T20:18:55.006Z,20.00
2019-03-25T20:21:43.974Z,20.00
2019-03-25T20:24:32.474Z,20.00
2019-03-25T20:27:21.270Z,20.00
2019-03-25T20:30:14.275Z,19.90
2019-03-25T20:33:02.742Z,19.90
2019-03-25T20:35:51.329Z,19.80
2019-03-25T20:38:39.870Z,19.80
2019-03-25T20:41:28.651Z,19.80
2019-03-25T20:44:17.285Z,19.70
2019-03-25T20:47:05.537Z,19.70
2019-03-25T20:49:54.953Z,19.60
2019-03-25T20:52:43.664Z,19.60
2019-03-25T20:55:31.880Z,19.60
2019-03-25T20:58:20.891Z,19.50
2019-03-25T21:01:09.249Z,19.50
2019-03-25T21:03:57.684Z,19.50
2019-03-25T21:06:46.177Z,19.40
2019-03-25T21:09:34.372Z,19.40
2019-03-25T21:12:23.259Z,19.30
2019-03-25T21:15:11.600Z,19.30
2019-03-25T21:18:00.102Z,19.20
2019-03-25T21:20:49.026Z,19.20
2019-03-25T21:23:37.418Z,19.20
2019-03-25T21:26:26.184Z,19.10
2019-03-25T21:29:15.837Z,19.10
2019-03-25T21:32:04.404Z,19.10
2019-03-25T21:34:53.103Z,19.00
2019-03-25T21:37:41.519Z,19.00
2019-03-25T21:40:30.063Z,18.90
2019-03-25T21:43:19.488Z,18.90
2019-03-25T21:46:08.198Z,18.80
2019-03-25T21:48:57.099Z,18.80
2019-03-25T21:51:45.535Z,18.80
2019-03-25T21:54:34.071Z,18.70
2019-03-25T21:57:22.639Z,18.70
2019-03-25T22:00:13.071Z,18.60
2019-03-25T22:03:11.435Z,18.60
2019-03-25T22:05:52.072Z,18.60
2019-03-25T22:08:40.577Z,18.50
2019-03-25T22:11:29.059Z,18.50
2019-03-25T22:14:17.483Z,18.40
2019-03-25T22:17:06.305Z,18.40
2019-03-25T22:19:54.662Z,18.40
2019-03-25T22:22:43.014Z,18.30
2019-03-25T22:25:31.389Z,18.30
2019-03-25T22:28:19.620Z,18.20
2019-03-25T22:31:08.026Z,18.20
2019-03-25T22:33:56.321Z,18.20
2019-03-25T22:36:44.478Z,18.10
2019-03-25T22:39:32.837Z,18.10
2019-03-25T22:42:21.340Z,18.00
2019-03-25T22:45:10.856Z,18.00
2019-03-25T22:47:59.320Z,18.00
2019-03-25T22:50:47.515Z,17.90
2019-03-25T22:53:36.067Z,17.90
2019-03-25T22:56:24.308Z,17.90
2019-03-25T22:59:13.009Z,17.80
2019-03-25T23:02:02.466Z,17.70
2019-03-25T23:04:51.750Z,17.80
2019-03-25T23:07:40.256Z,17.70
2019-03-25T23:10:28.412Z,17.70
2019-03-25T23:13:17.155Z,17.60
2019-03-25T23:16:05.499Z,17.60
2019-03-25T23:18:53.784Z,17.60
2019-03-25T23:21:42.439Z,17.50
2019-03-25T23:24:31.337Z,17.50
2019-03-25T23:27:19.416Z,17.50
2019-03-25T23:30:09.319Z,17.40
2019-03-25T23:32:57.836Z,17.40
2019-03-25T23:35:46.442Z,17.40
2019-03-25T23:38:34.887Z,17.30
2019-03-25T23:41:23.404Z,17.30
2019-03-25T23:44:12.234Z,17.30
2019-03-25T23:47:00.750Z,17.20
2019-03-25T23:49:49.250Z,17.20
2019-03-25T23:52:39.037Z,17.20
2019-03-25T23:55:27.634Z,17.10
2019-03-25T23:58:15.825Z,17.10
